Barcelona Knutsen — EACW — position and weather

sailwx.info

Track history (hours):
 
Tides and Currents Weather Stations Pressure Air Temp Water Temp Dewpoint Dewpoint Depression Visibility Wind Speed Wind Dir Waves Ship Positions

Barcelona Knutsen

Last reported at 2015-Feb-15 03:06 UTC. Time now 2015-Mar-01 12:35 UTC.
Position N 08°13' W 015°02'.
Warning: this ship's position is 14 days out of date.

Length 290 m; draft 8.5 m.

Type: Ship (hazmat cat B). MMSI: 224436000.

Date/timePositionNaut miles runAvg speedWind from/ knotsBaromVisibWave heightAir tempDewpointWater temp
2015-Feb-15 03:06N 08°13' W 015°02'712.8
2015-Feb-15 02:33N 08°18' W 015°08'1312.7
2015-Feb-15 01:32N 08°26' W 015°17'1912.9
2015-Feb-15 00:06N 08°38' W 015°32'712.9
2015-Feb-14 23:33N 08°43' W 015°37'1312.8
2015-Feb-14 22:34N 08°51' W 015°47'1312.9
2015-Feb-14 21:33N 08°59' W 015°57'1312.9
2015-Feb-14 20:33N 09°08' W 016°07'1312.9
2015-Feb-14 19:33N 09°16' W 016°17'1313.0
2015-Feb-14 18:33N 09°25' W 016°27'1313.0
2015-Feb-14 17:33N 09°33' W 016°37'1313.1
2015-Feb-14 16:33N 09°43' W 016°46'1313.4
2015-Feb-14 15:33N 09°54' W 016°54'1413.9
2015-Feb-14 14:33N 10°05' W 017°02'  
Track history (hours):
 
Tides and Currents Weather Stations Pressure Air Temp Water Temp Dewpoint Dewpoint Depression Visibility Wind Speed Wind Dir Waves Ship Positions

Barcelona Knutsen

Last reported at 2015-Feb-15 03:06 UTC. Time now 2015-Mar-01 12:35 UTC.
Position N 08°13' W 015°02'.
Warning: this ship's position is 14 days out of date.

Length 290 m; draft 8.5 m.

Type: Ship (hazmat cat B). MMSI: 224436000.

Date/timePositionNaut miles runAvg speedWind from/ knotsBaromVisibWave heightAir tempDewpointWater temp
2015-Feb-15 03:06N 08°13' W 015°02'712.8
2015-Feb-15 02:33N 08°18' W 015°08'1312.7
2015-Feb-15 01:32N 08°26' W 015°17'1912.9
2015-Feb-15 00:06N 08°38' W 015°32'712.9
2015-Feb-14 23:33N 08°43' W 015°37'1312.8
2015-Feb-14 22:34N 08°51' W 015°47'1312.9
2015-Feb-14 21:33N 08°59' W 015°57'1312.9
2015-Feb-14 20:33N 09°08' W 016°07'1312.9
2015-Feb-14 19:33N 09°16' W 016°17'1313.0
2015-Feb-14 18:33N 09°25' W 016°27'1313.0
2015-Feb-14 17:33N 09°33' W 016°37'1313.1
2015-Feb-14 16:33N 09°43' W 016°46'1313.4
2015-Feb-14 15:33N 09°54' W 016°54'1413.9
2015-Feb-14 14:33N 10°05' W 017°02'  

Dump ship's entire track history